sensor_id;sensor_type;location;lat;lon;timestamp;P1;durP1;ratioP1;P2;durP2;ratioP2
7813;SDS011;3952;48.364;16.022;2023-04-25T00:00:07;1.33;;;1.33;;
7813;SDS011;3952;48.364;16.022;2023-04-25T00:02:35;1.50;;;1.40;;
7813;SDS011;3952;48.364;16.022;2023-04-25T00:05:02;1.13;;;1.13;;
7813;SDS011;3952;48.364;16.022;2023-04-25T00:07:30;1.70;;;1.37;;
7813;SDS011;3952;48.364;16.022;2023-04-25T00:09:58;1.40;;;1.40;;
7813;SDS011;3952;48.364;16.022;2023-04-25T00:12:26;1.53;;;1.43;;
7813;SDS011;3952;48.364;16.022;2023-04-25T00:14:53;1.40;;;1.40;;
7813;SDS011;3952;48.364;16.022;2023-04-25T00:17:22;1.60;;;1.60;;
7813;SDS011;3952;48.364;16.022;2023-04-25T00:19:49;1.53;;;1.33;;
7813;SDS011;3952;48.364;16.022;2023-04-25T00:22:17;1.93;;;1.53;;
7813;SDS011;3952;48.364;16.022;2023-04-25T00:24:45;1.80;;;1.70;;
7813;SDS011;3952;48.364;16.022;2023-04-25T00:27:13;1.73;;;1.73;;
7813;SDS011;3952;48.364;16.022;2023-04-25T00:29:41;1.80;;;1.80;;
7813;SDS011;3952;48.364;16.022;2023-04-25T00:32:08;1.60;;;1.53;;
7813;SDS011;3952;48.364;16.022;2023-04-25T00:34:35;1.50;;;1.50;;
7813;SDS011;3952;48.364;16.022;2023-04-25T00:37:02;1.80;;;1.80;;
7813;SDS011;3952;48.364;16.022;2023-04-25T00:39:30;2.00;;;1.90;;
7813;SDS011;3952;48.364;16.022;2023-04-25T00:41:57;2.00;;;1.90;;
7813;SDS011;3952;48.364;16.022;2023-04-25T00:44:26;1.80;;;1.70;;
7813;SDS011;3952;48.364;16.022;2023-04-25T00:46:55;1.87;;;1.77;;
7813;SDS011;3952;48.364;16.022;2023-04-25T00:49:23;1.80;;;1.70;;
7813;SDS011;3952;48.364;16.022;2023-04-25T00:51:50;2.00;;;1.90;;
7813;SDS011;3952;48.364;16.022;2023-04-25T00:54:18;2.00;;;1.90;;
7813;SDS011;3952;48.364;16.022;2023-04-25T00:56:45;1.87;;;1.83;;
7813;SDS011;3952;48.364;16.022;2023-04-25T00:59:12;2.10;;;2.00;;
7813;SDS011;3952;48.364;16.022;2023-04-25T01:01:42;1.90;;;1.80;;
7813;SDS011;3952;48.364;16.022;2023-04-25T01:04:10;1.70;;;1.60;;
7813;SDS011;3952;48.364;16.022;2023-04-25T01:06:37;1.80;;;1.80;;
7813;SDS011;3952;48.364;16.022;2023-04-25T01:09:04;2.10;;;2.00;;
7813;SDS011;3952;48.364;16.022;2023-04-25T01:11:31;1.87;;;1.77;;
7813;SDS011;3952;48.364;16.022;2023-04-25T01:13:59;2.00;;;1.60;;
7813;SDS011;3952;48.364;16.022;2023-04-25T01:16:27;2.27;;;2.13;;
7813;SDS011;3952;48.364;16.022;2023-04-25T01:18:55;2.03;;;1.90;;
7813;SDS011;3952;48.364;16.022;2023-04-25T01:21:25;2.13;;;2.03;;
7813;SDS011;3952;48.364;16.022;2023-04-25T01:23:53;2.30;;;1.90;;
7813;SDS011;3952;48.364;16.022;2023-04-25T01:26:21;2.10;;;2.00;;
7813;SDS011;3952;48.364;16.022;2023-04-25T01:28:49;2.30;;;2.20;;
7813;SDS011;3952;48.364;16.022;2023-04-25T01:31:16;2.23;;;2.13;;
7813;SDS011;3952;48.364;16.022;2023-04-25T01:33:45;1.83;;;1.83;;
7813;SDS011;3952;48.364;16.022;2023-04-25T01:36:12;2.23;;;2.13;;
7813;SDS011;3952;48.364;16.022;2023-04-25T01:38:42;2.60;;;2.43;;
7813;SDS011;3952;48.364;16.022;2023-04-25T01:41:11;2.00;;;1.90;;
7813;SDS011;3952;48.364;16.022;2023-04-25T01:43:39;2.10;;;2.00;;
7813;SDS011;3952;48.364;16.022;2023-04-25T01:46:06;2.20;;;2.03;;
7813;SDS011;3952;48.364;16.022;2023-04-25T01:48:33;2.77;;;2.57;;
7813;SDS011;3952;48.364;16.022;2023-04-25T01:51:01;1.80;;;1.80;;
7813;SDS011;3952;48.364;16.022;2023-04-25T01:53:28;1.87;;;1.77;;
7813;SDS011;3952;48.364;16.022;2023-04-25T01:55:57;2.73;;;2.30;;
7813;SDS011;3952;48.364;16.022;2023-04-25T01:58:24;2.20;;;2.00;;
7813;SDS011;3952;48.364;16.022;2023-04-25T02:00:51;1.93;;;1.90;;
7813;SDS011;3952;48.364;16.022;2023-04-25T02:03:18;2.17;;;1.97;;
7813;SDS011;3952;48.364;16.022;2023-04-25T02:05:46;3.30;;;2.30;;
7813;SDS011;3952;48.364;16.022;2023-04-25T02:08:13;2.57;;;2.37;;
7813;SDS011;3952;48.364;16.022;2023-04-25T02:10:40;9.50;;;2.20;;
7813;SDS011;3952;48.364;16.022;2023-04-25T02:13:09;2.60;;;2.17;;
7813;SDS011;3952;48.364;16.022;2023-04-25T02:15:36;2.97;;;2.77;;
7813;SDS011;3952;48.364;16.022;2023-04-25T02:18:03;2.83;;;2.57;;
7813;SDS011;3952;48.364;16.022;2023-04-25T02:20:31;2.90;;;2.70;;
7813;SDS011;3952;48.364;16.022;2023-04-25T02:22:58;3.10;;;2.90;;
7813;SDS011;3952;48.364;16.022;2023-04-25T02:25:26;2.57;;;2.47;;
7813;SDS011;3952;48.364;16.022;2023-04-25T02:27:53;2.80;;;2.70;;
7813;SDS011;3952;48.364;16.022;2023-04-25T02:30:22;2.70;;;2.60;;
7813;SDS011;3952;48.364;16.022;2023-04-25T02:32:49;2.67;;;2.57;;
7813;SDS011;3952;48.364;16.022;2023-04-25T02:35:16;3.40;;;2.87;;
7813;SDS011;3952;48.364;16.022;2023-04-25T02:37:43;3.17;;;2.97;;
7813;SDS011;3952;48.364;16.022;2023-04-25T02:40:11;3.30;;;3.10;;
7813;SDS011;3952;48.364;16.022;2023-04-25T02:42:38;3.00;;;2.67;;
7813;SDS011;3952;48.364;16.022;2023-04-25T02:45:05;3.33;;;3.13;;
7813;SDS011;3952;48.364;16.022;2023-04-25T02:47:35;3.13;;;3.03;;
7813;SDS011;3952;48.364;16.022;2023-04-25T02:50:02;3.43;;;3.13;;
7813;SDS011;3952;48.364;16.022;2023-04-25T02:52:30;3.37;;;3.17;;
7813;SDS011;3952;48.364;16.022;2023-04-25T02:54:57;2.90;;;2.80;;
7813;SDS011;3952;48.364;16.022;2023-04-25T02:57:24;3.20;;;3.00;;
7813;SDS011;3952;48.364;16.022;2023-04-25T02:59:52;3.50;;;3.20;;
7813;SDS011;3952;48.364;16.022;2023-04-25T03:02:19;3.17;;;2.97;;
7813;SDS011;3952;48.364;16.022;2023-04-25T03:04:47;4.00;;;3.70;;
7813;SDS011;3952;48.364;16.022;2023-04-25T03:07:15;3.27;;;3.03;;
7813;SDS011;3952;48.364;16.022;2023-04-25T03:09:42;3.40;;;3.20;;
7813;SDS011;3952;48.364;16.022;2023-04-25T03:12:09;3.70;;;3.50;;
7813;SDS011;3952;48.364;16.022;2023-04-25T03:14:36;3.33;;;3.17;;
7813;SDS011;3952;48.364;16.022;2023-04-25T03:17:03;2.97;;;2.80;;
7813;SDS011;3952;48.364;16.022;2023-04-25T03:19:31;3.40;;;3.20;;
7813;SDS011;3952;48.364;16.022;2023-04-25T03:21:59;3.57;;;3.27;;
7813;SDS011;3952;48.364;16.022;2023-04-25T03:24:26;3.30;;;3.10;;
7813;SDS011;3952;48.364;16.022;2023-04-25T03:26:54;3.67;;;3.37;;
7813;SDS011;3952;48.364;16.022;2023-04-25T03:29:21;3.50;;;3.30;;
7813;SDS011;3952;48.364;16.022;2023-04-25T03:31:50;4.03;;;3.73;;
7813;SDS011;3952;48.364;16.022;2023-04-25T03:34:18;3.80;;;3.60;;
7813;SDS011;3952;48.364;16.022;2023-04-25T03:36:46;3.60;;;3.30;;
7813;SDS011;3952;48.364;16.022;2023-04-25T03:39:15;3.83;;;3.63;;
7813;SDS011;3952;48.364;16.022;2023-04-25T03:41:42;3.80;;;3.60;;
7813;SDS011;3952;48.364;16.022;2023-04-25T03:44:09;3.97;;;3.57;;
7813;SDS011;3952;48.364;16.022;2023-04-25T03:46:36;4.17;;;3.53;;
7813;SDS011;3952;48.364;16.022;2023-04-25T03:49:03;3.90;;;3.70;;
7813;SDS011;3952;48.364;16.022;2023-04-25T03:51:31;4.27;;;3.70;;
7813;SDS011;3952;48.364;16.022;2023-04-25T03:53:58;4.33;;;4.10;;
7813;SDS011;3952;48.364;16.022;2023-04-25T03:56:26;4.13;;;3.83;;
7813;SDS011;3952;48.364;16.022;2023-04-25T03:58:54;4.23;;;3.93;;
7813;SDS011;3952;48.364;16.022;2023-04-25T04:01:21;4.63;;;4.33;;
7813;SDS011;3952;48.364;16.022;2023-04-25T04:03:48;4.10;;;3.90;;
7813;SDS011;3952;48.364;16.022;2023-04-25T04:06:16;4.37;;;3.70;;
7813;SDS011;3952;48.364;16.022;2023-04-25T04:08:44;4.30;;;4.00;;
7813;SDS011;3952;48.364;16.022;2023-04-25T04:11:11;3.83;;;3.53;;
7813;SDS011;3952;48.364;16.022;2023-04-25T04:13:40;4.20;;;3.90;;
7813;SDS011;3952;48.364;16.022;2023-04-25T04:16:07;3.70;;;3.47;;
7813;SDS011;3952;48.364;16.022;2023-04-25T04:18:34;3.97;;;3.50;;
7813;SDS011;3952;48.364;16.022;2023-04-25T04:21:02;4.03;;;3.73;;
7813;SDS011;3952;48.364;16.022;2023-04-25T04:23:29;3.50;;;3.30;;
7813;SDS011;3952;48.364;16.022;2023-04-25T04:25:56;4.00;;;3.70;;
7813;SDS011;3952;48.364;16.022;2023-04-25T04:28:24;4.00;;;3.80;;
7813;SDS011;3952;48.364;16.022;2023-04-25T04:30:53;5.17;;;3.57;;
7813;SDS011;3952;48.364;16.022;2023-04-25T04:33:20;3.67;;;3.43;;
7813;SDS011;3952;48.364;16.022;2023-04-25T04:35:49;3.50;;;3.30;;
7813;SDS011;3952;48.364;16.022;2023-04-25T04:38:18;3.87;;;3.63;;
7813;SDS011;3952;48.364;16.022;2023-04-25T04:40:46;4.03;;;3.73;;
7813;SDS011;3952;48.364;16.022;2023-04-25T04:43:14;3.80;;;3.50;;
7813;SDS011;3952;48.364;16.022;2023-04-25T04:45:42;3.90;;;3.70;;
7813;SDS011;3952;48.364;16.022;2023-04-25T04:48:11;4.43;;;4.13;;
7813;SDS011;3952;48.364;16.022;2023-04-25T04:50:39;4.00;;;3.80;;
7813;SDS011;3952;48.364;16.022;2023-04-25T04:53:07;4.23;;;3.80;;
7813;SDS011;3952;48.364;16.022;2023-04-25T04:55:34;4.10;;;3.80;;
7813;SDS011;3952;48.364;16.022;2023-04-25T04:58:01;4.83;;;4.43;;
7813;SDS011;3952;48.364;16.022;2023-04-25T05:00:28;5.07;;;4.67;;
7813;SDS011;3952;48.364;16.022;2023-04-25T05:02:56;4.47;;;4.17;;
7813;SDS011;3952;48.364;16.022;2023-04-25T05:05:24;4.53;;;4.23;;
7813;SDS011;3952;48.364;16.022;2023-04-25T05:07:52;4.10;;;3.90;;
7813;SDS011;3952;48.364;16.022;2023-04-25T05:10:19;4.90;;;4.60;;
7813;SDS011;3952;48.364;16.022;2023-04-25T05:12:46;4.90;;;4.60;;
7813;SDS011;3952;48.364;16.022;2023-04-25T05:15:14;5.20;;;4.70;;
7813;SDS011;3952;48.364;16.022;2023-04-25T05:17:41;4.10;;;3.90;;
7813;SDS011;3952;48.364;16.022;2023-04-25T05:20:08;4.67;;;4.37;;
7813;SDS011;3952;48.364;16.022;2023-04-25T05:22:37;5.00;;;4.67;;
7813;SDS011;3952;48.364;16.022;2023-04-25T05:25:07;5.60;;;5.10;;
7813;SDS011;3952;48.364;16.022;2023-04-25T05:27:34;5.53;;;5.23;;
7813;SDS011;3952;48.364;16.022;2023-04-25T05:30:02;5.80;;;5.30;;
7813;SDS011;3952;48.364;16.022;2023-04-25T05:32:30;5.43;;;5.13;;
7813;SDS011;3952;48.364;16.022;2023-04-25T05:34:57;5.30;;;4.80;;
7813;SDS011;3952;48.364;16.022;2023-04-25T05:37:24;5.30;;;4.80;;
7813;SDS011;3952;48.364;16.022;2023-04-25T05:39:53;5.80;;;5.50;;
7813;SDS011;3952;48.364;16.022;2023-04-25T05:42:20;5.03;;;4.73;;
7813;SDS011;3952;48.364;16.022;2023-04-25T05:44:47;5.10;;;4.80;;
7813;SDS011;3952;48.364;16.022;2023-04-25T05:47:14;4.80;;;4.40;;
7813;SDS011;3952;48.364;16.022;2023-04-25T05:49:41;5.00;;;4.70;;
7813;SDS011;3952;48.364;16.022;2023-04-25T05:52:08;4.30;;;3.90;;
7813;SDS011;3952;48.364;16.022;2023-04-25T05:54:36;4.43;;;4.13;;
7813;SDS011;3952;48.364;16.022;2023-04-25T05:57:04;4.23;;;3.93;;
7813;SDS011;3952;48.364;16.022;2023-04-25T05:59:31;4.87;;;4.57;;
7813;SDS011;3952;48.364;16.022;2023-04-25T06:01:59;4.53;;;4.23;;
7813;SDS011;3952;48.364;16.022;2023-04-25T06:04:26;4.20;;;3.90;;
7813;SDS011;3952;48.364;16.022;2023-04-25T06:06:53;4.40;;;4.10;;
7813;SDS011;3952;48.364;16.022;2023-04-25T06:09:20;4.60;;;4.30;;
7813;SDS011;3952;48.364;16.022;2023-04-25T06:11:47;4.27;;;3.97;;
7813;SDS011;3952;48.364;16.022;2023-04-25T06:14:16;3.90;;;3.70;;
7813;SDS011;3952;48.364;16.022;2023-04-25T06:16:43;3.90;;;3.70;;
7813;SDS011;3952;48.364;16.022;2023-04-25T06:19:10;3.63;;;3.43;;
7813;SDS011;3952;48.364;16.022;2023-04-25T06:21:38;3.20;;;3.00;;
7813;SDS011;3952;48.364;16.022;2023-04-25T06:24:05;4.10;;;3.80;;
7813;SDS011;3952;48.364;16.022;2023-04-25T06:26:32;3.50;;;3.30;;
7813;SDS011;3952;48.364;16.022;2023-04-25T06:28:59;3.83;;;3.27;;
7813;SDS011;3952;48.364;16.022;2023-04-25T06:31:28;2.90;;;2.70;;
7813;SDS011;3952;48.364;16.022;2023-04-25T06:33:57;2.90;;;2.80;;
7813;SDS011;3952;48.364;16.022;2023-04-25T06:36:24;3.20;;;3.00;;
7813;SDS011;3952;48.364;16.022;2023-04-25T06:38:52;2.67;;;2.57;;
7813;SDS011;3952;48.364;16.022;2023-04-25T06:41:20;3.00;;;2.90;;
7813;SDS011;3952;48.364;16.022;2023-04-25T06:43:48;2.83;;;2.63;;
7813;SDS011;3952;48.364;16.022;2023-04-25T06:46:15;4.13;;;2.77;;
7813;SDS011;3952;48.364;16.022;2023-04-25T06:48:43;3.23;;;3.03;;
7813;SDS011;3952;48.364;16.022;2023-04-25T06:51:11;2.80;;;2.60;;
7813;SDS011;3952;48.364;16.022;2023-04-25T06:53:38;2.73;;;2.53;;
7813;SDS011;3952;48.364;16.022;2023-04-25T06:56:06;2.77;;;2.47;;
7813;SDS011;3952;48.364;16.022;2023-04-25T06:58:33;2.47;;;2.37;;
7813;SDS011;3952;48.364;16.022;2023-04-25T07:01:00;2.57;;;2.47;;
7813;SDS011;3952;48.364;16.022;2023-04-25T07:03:27;2.87;;;2.67;;
7813;SDS011;3952;48.364;16.022;2023-04-25T07:05:56;3.17;;;2.97;;
7813;SDS011;3952;48.364;16.022;2023-04-25T07:08:24;2.87;;;2.67;;
7813;SDS011;3952;48.364;16.022;2023-04-25T07:10:51;2.87;;;2.77;;
7813;SDS011;3952;48.364;16.022;2023-04-25T07:13:18;3.20;;;2.90;;
7813;SDS011;3952;48.364;16.022;2023-04-25T07:15:45;3.30;;;2.80;;
7813;SDS011;3952;48.364;16.022;2023-04-25T07:18:13;3.27;;;3.07;;
7813;SDS011;3952;48.364;16.022;2023-04-25T07:20:41;3.40;;;3.20;;
7813;SDS011;3952;48.364;16.022;2023-04-25T07:23:09;2.30;;;2.20;;
7813;SDS011;3952;48.364;16.022;2023-04-25T07:25:36;2.47;;;2.37;;
7813;SDS011;3952;48.364;16.022;2023-04-25T07:28:04;3.30;;;2.40;;
7813;SDS011;3952;48.364;16.022;2023-04-25T07:30:31;2.73;;;2.63;;
7813;SDS011;3952;48.364;16.022;2023-04-25T07:32:59;2.83;;;2.63;;
7813;SDS011;3952;48.364;16.022;2023-04-25T07:35:27;2.90;;;2.80;;
7813;SDS011;3952;48.364;16.022;2023-04-25T07:37:54;3.00;;;2.80;;
7813;SDS011;3952;48.364;16.022;2023-04-25T07:40:22;2.80;;;2.70;;
7813;SDS011;3952;48.364;16.022;2023-04-25T07:42:50;2.83;;;2.63;;
7813;SDS011;3952;48.364;16.022;2023-04-25T07:45:17;2.97;;;2.83;;
7813;SDS011;3952;48.364;16.022;2023-04-25T07:47:44;2.83;;;2.63;;
7813;SDS011;3952;48.364;16.022;2023-04-25T07:50:11;2.73;;;2.63;;
7813;SDS011;3952;48.364;16.022;2023-04-25T07:52:38;2.73;;;2.63;;
7813;SDS011;3952;48.364;16.022;2023-04-25T07:55:06;2.70;;;2.60;;
7813;SDS011;3952;48.364;16.022;2023-04-25T07:57:35;3.03;;;2.73;;
7813;SDS011;3952;48.364;16.022;2023-04-25T08:00:03;2.60;;;2.50;;
7813;SDS011;3952;48.364;16.022;2023-04-25T08:02:34;2.80;;;2.70;;
7813;SDS011;3952;48.364;16.022;2023-04-25T08:05:01;4.83;;;3.07;;
7813;SDS011;3952;48.364;16.022;2023-04-25T08:07:29;2.67;;;2.57;;
7813;SDS011;3952;48.364;16.022;2023-04-25T08:09:56;3.13;;;2.93;;
7813;SDS011;3952;48.364;16.022;2023-04-25T08:12:23;2.67;;;2.57;;
7813;SDS011;3952;48.364;16.022;2023-04-25T08:14:52;3.00;;;2.80;;
7813;SDS011;3952;48.364;16.022;2023-04-25T08:17:19;2.90;;;2.80;;
7813;SDS011;3952;48.364;16.022;2023-04-25T08:19:46;2.80;;;2.60;;
7813;SDS011;3952;48.364;16.022;2023-04-25T08:22:14;2.90;;;2.63;;
7813;SDS011;3952;48.364;16.022;2023-04-25T08:24:41;3.17;;;2.97;;
7813;SDS011;3952;48.364;16.022;2023-04-25T08:27:09;2.40;;;2.30;;
7813;SDS011;3952;48.364;16.022;2023-04-25T08:29:36;2.70;;;2.60;;
7813;SDS011;3952;48.364;16.022;2023-04-25T08:32:05;2.70;;;2.60;;
7813;SDS011;3952;48.364;16.022;2023-04-25T08:34:32;2.90;;;2.70;;
7813;SDS011;3952;48.364;16.022;2023-04-25T08:36:59;3.20;;;3.00;;
7813;SDS011;3952;48.364;16.022;2023-04-25T08:39:29;2.70;;;2.60;;
7813;SDS011;3952;48.364;16.022;2023-04-25T08:41:56;3.23;;;2.10;;
7813;SDS011;3952;48.364;16.022;2023-04-25T08:44:23;2.20;;;2.10;;
7813;SDS011;3952;48.364;16.022;2023-04-25T08:46:52;1.90;;;1.87;;
7813;SDS011;3952;48.364;16.022;2023-04-25T08:49:23;2.43;;;1.60;;
7813;SDS011;3952;48.364;16.022;2023-04-25T08:51:51;1.87;;;1.77;;
7813;SDS011;3952;48.364;16.022;2023-04-25T08:54:21;1.57;;;1.50;;
7813;SDS011;3952;48.364;16.022;2023-04-25T08:56:54;2.17;;;2.07;;
7813;SDS011;3952;48.364;16.022;2023-04-25T08:59:22;1.77;;;1.70;;
7813;SDS011;3952;48.364;16.022;2023-04-25T09:01:50;2.63;;;2.43;;
7813;SDS011;3952;48.364;16.022;2023-04-25T09:04:17;2.57;;;2.37;;
7813;SDS011;3952;48.364;16.022;2023-04-25T09:06:46;1.90;;;1.80;;
7813;SDS011;3952;48.364;16.022;2023-04-25T09:09:14;1.90;;;1.80;;
7813;SDS011;3952;48.364;16.022;2023-04-25T09:11:41;1.70;;;1.60;;
7813;SDS011;3952;48.364;16.022;2023-04-25T09:14:12;1.20;;;1.20;;
7813;SDS011;3952;48.364;16.022;2023-04-25T09:19:34;1.87;;;1.77;;
7813;SDS011;3952;48.364;16.022;2023-04-25T09:22:06;1.97;;;1.87;;
7813;SDS011;3952;48.364;16.022;2023-04-25T09:24:35;3.67;;;1.40;;
7813;SDS011;3952;48.364;16.022;2023-04-25T09:27:03;1.90;;;1.80;;
7813;SDS011;3952;48.364;16.022;2023-04-25T09:29:31;2.20;;;2.10;;
7813;SDS011;3952;48.364;16.022;2023-04-25T09:32:16;2.03;;;1.93;;
7813;SDS011;3952;48.364;16.022;2023-04-25T09:34:45;1.70;;;1.60;;
7813;SDS011;3952;48.364;16.022;2023-04-25T09:37:19;1.40;;;1.40;;
7813;SDS011;3952;48.364;16.022;2023-04-25T09:39:47;1.70;;;1.60;;
7813;SDS011;3952;48.364;16.022;2023-04-25T09:42:16;1.90;;;1.70;;
7813;SDS011;3952;48.364;16.022;2023-04-25T09:44:44;1.53;;;1.43;;
7813;SDS011;3952;48.364;16.022;2023-04-25T09:47:12;1.83;;;1.73;;
7813;SDS011;3952;48.364;16.022;2023-04-25T09:49:40;1.70;;;1.70;;
7813;SDS011;3952;48.364;16.022;2023-04-25T09:52:08;2.30;;;1.97;;
7813;SDS011;3952;48.364;16.022;2023-04-25T09:54:40;1.47;;;1.47;;
7813;SDS011;3952;48.364;16.022;2023-04-25T09:57:10;1.50;;;1.50;;
7813;SDS011;3952;48.364;16.022;2023-04-25T09:59:39;1.80;;;1.70;;
7813;SDS011;3952;48.364;16.022;2023-04-25T10:02:10;2.10;;;1.70;;
7813;SDS011;3952;48.364;16.022;2023-04-25T10:04:38;1.50;;;1.40;;
7813;SDS011;3952;48.364;16.022;2023-04-25T10:07:07;1.73;;;1.60;;
7813;SDS011;3952;48.364;16.022;2023-04-25T10:09:36;1.90;;;1.50;;
7813;SDS011;3952;48.364;16.022;2023-04-25T10:12:07;1.60;;;1.50;;
7813;SDS011;3952;48.364;16.022;2023-04-25T10:14:34;1.40;;;1.40;;
7813;SDS011;3952;48.364;16.022;2023-04-25T10:17:02;1.20;;;1.20;;
7813;SDS011;3952;48.364;16.022;2023-04-25T10:19:29;1.30;;;1.30;;
7813;SDS011;3952;48.364;16.022;2023-04-25T10:22:02;1.20;;;1.20;;
7813;SDS011;3952;48.364;16.022;2023-04-25T10:24:33;2.23;;;1.60;;
7813;SDS011;3952;48.364;16.022;2023-04-25T10:27:02;1.50;;;1.50;;
7813;SDS011;3952;48.364;16.022;2023-04-25T10:29:32;3.03;;;1.30;;
7813;SDS011;3952;48.364;16.022;2023-04-25T10:31:59;1.30;;;1.30;;
7813;SDS011;3952;48.364;16.022;2023-04-25T10:34:37;1.33;;;1.33;;
7813;SDS011;3952;48.364;16.022;2023-04-25T10:37:08;1.40;;;1.30;;
7813;SDS011;3952;48.364;16.022;2023-04-25T10:39:38;1.87;;;1.60;;
7813;SDS011;3952;48.364;16.022;2023-04-25T10:42:06;1.27;;;1.27;;
7813;SDS011;3952;48.364;16.022;2023-04-25T10:44:36;1.33;;;1.03;;
7813;SDS011;3952;48.364;16.022;2023-04-25T10:47:06;0.63;;;0.63;;
7813;SDS011;3952;48.364;16.022;2023-04-25T10:49:35;1.20;;;1.10;;
7813;SDS011;3952;48.364;16.022;2023-04-25T10:52:17;1.17;;;1.17;;
7813;SDS011;3952;48.364;16.022;2023-04-25T10:54:49;1.43;;;0.80;;
7813;SDS011;3952;48.364;16.022;2023-04-25T10:57:28;1.80;;;0.93;;
7813;SDS011;3952;48.364;16.022;2023-04-25T11:00:04;0.90;;;0.90;;
7813;SDS011;3952;48.364;16.022;2023-04-25T11:02:42;0.80;;;0.80;;
7813;SDS011;3952;48.364;16.022;2023-04-25T11:05:16;0.53;;;0.53;;
7813;SDS011;3952;48.364;16.022;2023-04-25T11:07:53;0.73;;;0.73;;
7813;SDS011;3952;48.364;16.022;2023-04-25T11:10:25;0.67;;;0.67;;
7813;SDS011;3952;48.364;16.022;2023-04-25T11:12:52;1.23;;;0.80;;
7813;SDS011;3952;48.364;16.022;2023-04-25T11:15:21;0.70;;;0.70;;
7813;SDS011;3952;48.364;16.022;2023-04-25T11:17:50;0.80;;;0.80;;
7813;SDS011;3952;48.364;16.022;2023-04-25T11:20:18;0.90;;;0.90;;
7813;SDS011;3952;48.364;16.022;2023-04-25T11:22:46;1.03;;;0.97;;
7813;SDS011;3952;48.364;16.022;2023-04-25T11:25:14;1.67;;;1.00;;
7813;SDS011;3952;48.364;16.022;2023-04-25T11:27:51;1.40;;;1.30;;
7813;SDS011;3952;48.364;16.022;2023-04-25T11:30:22;1.40;;;1.40;;
7813;SDS011;3952;48.364;16.022;2023-04-25T11:32:50;1.40;;;1.40;;
7813;SDS011;3952;48.364;16.022;2023-04-25T11:35:18;5.70;;;1.20;;
7813;SDS011;3952;48.364;16.022;2023-04-25T11:37:47;1.30;;;1.30;;
7813;SDS011;3952;48.364;16.022;2023-04-25T11:40:15;1.40;;;1.30;;
7813;SDS011;3952;48.364;16.022;2023-04-25T11:42:43;1.10;;;1.10;;
7813;SDS011;3952;48.364;16.022;2023-04-25T11:45:11;1.07;;;1.07;;
7813;SDS011;3952;48.364;16.022;2023-04-25T11:47:41;1.03;;;1.03;;
7813;SDS011;3952;48.364;16.022;2023-04-25T11:50:08;1.13;;;1.03;;
7813;SDS011;3952;48.364;16.022;2023-04-25T11:52:37;1.30;;;1.30;;
7813;SDS011;3952;48.364;16.022;2023-04-25T11:55:05;1.40;;;1.30;;
7813;SDS011;3952;48.364;16.022;2023-04-25T11:57:34;1.47;;;1.37;;
7813;SDS011;3952;48.364;16.022;2023-04-25T12:00:05;1.30;;;1.20;;
7813;SDS011;3952;48.364;16.022;2023-04-25T12:02:36;1.27;;;1.27;;
7813;SDS011;3952;48.364;16.022;2023-04-25T12:05:07;1.03;;;1.03;;
7813;SDS011;3952;48.364;16.022;2023-04-25T12:07:35;1.23;;;1.23;;
7813;SDS011;3952;48.364;16.022;2023-04-25T12:10:07;3.70;;;1.30;;
7813;SDS011;3952;48.364;16.022;2023-04-25T12:12:36;1.53;;;1.20;;
7813;SDS011;3952;48.364;16.022;2023-04-25T12:15:08;1.47;;;1.00;;
7813;SDS011;3952;48.364;16.022;2023-04-25T12:17:36;1.23;;;1.13;;
7813;SDS011;3952;48.364;16.022;2023-04-25T12:20:11;1.17;;;1.10;;
7813;SDS011;3952;48.364;16.022;2023-04-25T12:22:40;2.13;;;1.47;;
7813;SDS011;3952;48.364;16.022;2023-04-25T12:25:10;1.10;;;1.00;;
7813;SDS011;3952;48.364;16.022;2023-04-25T12:27:38;1.00;;;1.00;;
7813;SDS011;3952;48.364;16.022;2023-04-25T12:30:07;1.17;;;1.00;;
7813;SDS011;3952;48.364;16.022;2023-04-25T12:32:36;1.77;;;0.90;;
7813;SDS011;3952;48.364;16.022;2023-04-25T12:35:04;1.00;;;0.90;;
7813;SDS011;3952;48.364;16.022;2023-04-25T12:37:34;0.90;;;0.90;;
7813;SDS011;3952;48.364;16.022;2023-04-25T12:40:01;0.93;;;0.90;;
7813;SDS011;3952;48.364;16.022;2023-04-25T12:42:29;1.00;;;0.90;;
7813;SDS011;3952;48.364;16.022;2023-04-25T12:44:56;0.60;;;0.60;;
7813;SDS011;3952;48.364;16.022;2023-04-25T12:47:23;0.80;;;0.80;;
7813;SDS011;3952;48.364;16.022;2023-04-25T12:49:51;0.67;;;0.67;;
7813;SDS011;3952;48.364;16.022;2023-04-25T12:52:18;0.70;;;0.70;;
7813;SDS011;3952;48.364;16.022;2023-04-25T12:54:47;0.37;;;0.37;;
7813;SDS011;3952;48.364;16.022;2023-04-25T12:57:14;0.80;;;0.80;;
7813;SDS011;3952;48.364;16.022;2023-04-25T12:59:41;0.80;;;0.80;;
7813;SDS011;3952;48.364;16.022;2023-04-25T13:02:09;1.03;;;1.03;;
7813;SDS011;3952;48.364;16.022;2023-04-25T13:04:36;0.70;;;0.63;;
7813;SDS011;3952;48.364;16.022;2023-04-25T13:07:03;0.90;;;0.90;;
7813;SDS011;3952;48.364;16.022;2023-04-25T13:09:30;0.80;;;0.80;;
7813;SDS011;3952;48.364;16.022;2023-04-25T13:11:59;0.87;;;0.60;;
7813;SDS011;3952;48.364;16.022;2023-04-25T13:14:26;0.77;;;0.77;;
7813;SDS011;3952;48.364;16.022;2023-04-25T13:16:54;1.10;;;0.63;;
7813;SDS011;3952;48.364;16.022;2023-04-25T13:19:21;2.10;;;0.77;;
7813;SDS011;3952;48.364;16.022;2023-04-25T13:21:48;3.20;;;0.97;;
7813;SDS011;3952;48.364;16.022;2023-04-25T13:24:15;0.90;;;0.90;;
7813;SDS011;3952;48.364;16.022;2023-04-25T13:26:42;0.80;;;0.80;;
7813;SDS011;3952;48.364;16.022;2023-04-25T13:29:11;0.90;;;0.90;;
7813;SDS011;3952;48.364;16.022;2023-04-25T13:31:38;1.20;;;1.10;;
7813;SDS011;3952;48.364;16.022;2023-04-25T13:34:06;2.60;;;1.20;;
7813;SDS011;3952;48.364;16.022;2023-04-25T13:36:33;2.43;;;1.70;;
7813;SDS011;3952;48.364;16.022;2023-04-25T13:39:00;2.00;;;1.60;;
7813;SDS011;3952;48.364;16.022;2023-04-25T13:41:29;2.07;;;1.30;;
7813;SDS011;3952;48.364;16.022;2023-04-25T13:43:56;1.80;;;1.60;;
7813;SDS011;3952;48.364;16.022;2023-04-25T13:46:24;1.20;;;1.07;;
7813;SDS011;3952;48.364;16.022;2023-04-25T13:48:52;1.27;;;1.17;;
7813;SDS011;3952;48.364;16.022;2023-04-25T13:51:19;1.00;;;1.00;;
7813;SDS011;3952;48.364;16.022;2023-04-25T13:53:46;1.50;;;1.40;;
7813;SDS011;3952;48.364;16.022;2023-04-25T13:56:13;1.60;;;1.50;;
7813;SDS011;3952;48.364;16.022;2023-04-25T13:58:40;1.40;;;1.30;;
7813;SDS011;3952;48.364;16.022;2023-04-25T14:01:07;1.20;;;1.20;;
7813;SDS011;3952;48.364;16.022;2023-04-25T14:03:36;1.70;;;1.40;;
7813;SDS011;3952;48.364;16.022;2023-04-25T14:06:03;2.20;;;1.30;;
7813;SDS011;3952;48.364;16.022;2023-04-25T14:08:31;1.40;;;1.23;;
7813;SDS011;3952;48.364;16.022;2023-04-25T14:10:58;1.17;;;1.10;;
7813;SDS011;3952;48.364;16.022;2023-04-25T14:13:25;1.30;;;1.20;;
7813;SDS011;3952;48.364;16.022;2023-04-25T14:15:53;1.27;;;1.17;;
7813;SDS011;3952;48.364;16.022;2023-04-25T14:18:20;1.40;;;1.30;;
7813;SDS011;3952;48.364;16.022;2023-04-25T14:20:48;1.70;;;1.60;;
7813;SDS011;3952;48.364;16.022;2023-04-25T14:23:16;1.30;;;1.30;;
7813;SDS011;3952;48.364;16.022;2023-04-25T14:25:43;1.63;;;1.57;;
7813;SDS011;3952;48.364;16.022;2023-04-25T14:28:10;4.67;;;1.70;;
7813;SDS011;3952;48.364;16.022;2023-04-25T14:30:38;1.90;;;1.80;;
7813;SDS011;3952;48.364;16.022;2023-04-25T14:33:05;1.27;;;1.27;;
7813;SDS011;3952;48.364;16.022;2023-04-25T14:35:32;1.53;;;1.10;;
7813;SDS011;3952;48.364;16.022;2023-04-25T14:38:01;0.90;;;0.90;;
7813;SDS011;3952;48.364;16.022;2023-04-25T14:40:28;1.13;;;1.13;;
7813;SDS011;3952;48.364;16.022;2023-04-25T14:42:55;3.70;;;1.07;;
7813;SDS011;3952;48.364;16.022;2023-04-25T14:45:23;0.93;;;0.93;;
7813;SDS011;3952;48.364;16.022;2023-04-25T14:47:50;0.73;;;0.73;;
7813;SDS011;3952;48.364;16.022;2023-04-25T14:50:17;1.63;;;0.97;;
7813;SDS011;3952;48.364;16.022;2023-04-25T14:52:45;3.33;;;0.87;;
7813;SDS011;3952;48.364;16.022;2023-04-25T14:55:13;1.03;;;1.03;;
7813;SDS011;3952;48.364;16.022;2023-04-25T14:57:40;1.20;;;1.10;;
7813;SDS011;3952;48.364;16.022;2023-04-25T15:00:08;0.70;;;0.70;;
7813;SDS011;3952;48.364;16.022;2023-04-25T15:02:39;1.33;;;0.90;;
7813;SDS011;3952;48.364;16.022;2023-04-25T15:05:06;0.90;;;0.90;;
7813;SDS011;3952;48.364;16.022;2023-04-25T15:07:35;0.80;;;0.80;;